Terminal Aerodrome Forecast
Issued by NWS

Home | Current Version | Previous Version | Text Only | Print | Product List | Glossary On
Versions: 1 2 3 4 5 6 7 8 9 10 11 12
000
FTAK31 PAJN 201700
TAFAYA
TAF
PAYA 201727Z 2018/2118 07004KT P6SM SCT060 OVC100
      TEMPO 2018/2021 08008G15KT -SHRA BKN040 OVC080
     FM210000 09012KT P6SM VCSH BKN040 OVC060
     FM211500 07003KT P6SM BKN040 OVC060
      AMD LTD TO CLD VIS AND WIND 2101/2110=

USA.gov is the U.S. government's official web portal to all federal, state and local government web resources and services.